• Join FlightAware (Why Join?)
  • Login
  • US Flag 
06:32AM EDT


 

Airport Tracker/Info


-or-


 

Live Flight TrackerFlight Track Log ✈ N29CC ✈ 18-Apr-2013 ✈ KCCR - KTVL

Flight Track Log - Related Links

Times and Time Zones

All times are in EDT time to prevent confusion due to time zone crossing. See the N29CC flight status page for this flight to view local times or setup timezone preferences in your user account.

Time Position Orientation Groundspeed Altitude Reporting Facility
EDT Latitude Longitude Course Direction KTS MPH feet Rate Location/Type
02:08PM 37.9833 -121.8000 90° East 136 157 6,800  Level Northern Cal TRACON
02:09PM 37.9833 -121.7500 90° East 132 152 7,800 900 Climbing Northern Cal TRACON
02:10PM 38.0000 -121.7167 58° Northeast 132 152 8,600 900 Climbing Northern Cal TRACON
02:11PM 38.0333 -121.6667 50° Northeast 134 154 9,600 900 Climbing Northern Cal TRACON
02:12PM 38.0500 -121.6333 58° Northeast 138 159 10,400 780 Climbing Northern Cal TRACON
02:13PM 38.0528 -121.6153 79° East 138 159 10,800 660 Climbing Oakland Center
02:14PM 38.0750 -121.5733 56° Northeast 141 162 11,500 300 Climbing Oakland Center
02:15PM 38.0978 -121.5192 62° Northeast 172 198 11,500  Level Oakland Center
02:16PM 38.1339 -121.4628 51° Northeast 181 208 11,500  Level Oakland Center
02:16PM 38.1500 -121.4333 55° Northeast 185 213 11,500  Level Northern Cal TRACON
02:17PM 38.1833 -121.4000 38° Northeast 186 214 11,500  Level Northern Cal TRACON
02:18PM 38.2167 -121.3333 58° Northeast 185 213 11,500  Level Northern Cal TRACON
02:19PM 38.2500 -121.3000 38° Northeast 184 212 11,500  Level Northern Cal TRACON
02:20PM 38.2833 -121.2500 50° Northeast 186 214 11,500  Level Northern Cal TRACON
02:21PM 38.3167 -121.2000 50° Northeast 190 219 11,500  Level Northern Cal TRACON
02:22PM 38.3500 -121.1333 57° Northeast 186 214 11,500  Level Northern Cal TRACON
02:23PM 38.3631 -121.0972 65° Northeast 188 216 11,500  Level Oakland Center
02:24PM 38.3919 -121.0433 56° Northeast 187 215 11,500  Level Oakland Center
02:25PM 38.4197 -120.9872 58° Northeast 187 215 11,500  Level Oakland Center
02:26PM 38.4508 -120.9347 53° Northeast 186 214 11,500  Level Oakland Center
02:27PM 38.4817 -120.8836 52° Northeast 183 211 11,500  Level Oakland Center
02:28PM 38.5025 -120.8228 66° East 185 213 11,500  Level Oakland Center
02:29PM 38.5261 -120.7661 62° Northeast 181 208 11,500  Level Oakland Center
02:30PM 38.5531 -120.6956 64° Northeast 184 212 11,500  Level Oakland Center
02:31PM 38.5758 -120.6372 63° Northeast 182 209 11,500  Level Oakland Center
02:32PM 38.5981 -120.5772 65° Northeast 186 214 11,500  Level Oakland Center
02:33PM 38.6208 -120.5197 63° Northeast 182 209 11,500  Level Oakland Center
02:34PM 38.6425 -120.4611 65° Northeast 183 211 11,500  Level Oakland Center
02:35PM 38.6642 -120.4022 65° Northeast 182 209 11,500  Level Oakland Center
02:36PM 38.6858 -120.3433 65° Northeast 183 211 11,500 -60 Level Oakland Center
02:37PM 38.7111 -120.2867 60° Northeast 184 212 11,400  Descending Oakland Center
02:38PM 38.7386 -120.2161 63° Northeast 184 212 11,500  Climbing Oakland Center
02:39PM 38.7633 -120.1572 62° Northeast 186 214 11,400 -120 Descending Oakland Center
02:41PM 38.8007 -120.1032 48° Northeast  Level FlightAware Approximate
02:48PM 38.8833 -119.9833 58° Northeast  Level FlightAware Approximate
02:49PM 38.8939 -119.9953 58° Northeast  Level Estimated
02:50PM 38.8939 -119.9953 58° Northeast  Level Estimated
02:51PM 38.8939 -119.9953 58° Northeast  Level Estimated
02:52PM 38.8939 -119.9953 58° Northeast  Level Estimated
02:53PM 38.8939 -119.9953 58° Northeast  Level Estimated
02:54PM 38.8939 -119.9953 58° Northeast  Level Estimated
02:55PM 38.8939 -119.9953 58° Northeast  Level Estimated
02:56PM 38.8939 -119.9953 58° Northeast  Level Estimated
02:57PM 38.8939 -119.9953 58° Northeast  Level Estimated
02:58PM 38.8939 -119.9953 58° Northeast  Level Estimated
02:59PM 38.8939 -119.9953 58° Northeast  Level Estimated